Vineyard Haven, Massachusetts
Current Conditions -  °F | °C
As of 3:53 AM on Thursday 18 Dec 2014 (Local Time) from KMVY Reporting Station
Overcast Overcast  
Wind Chill:   Ceiling: 5500
Heat Index:   Visibility: 10mi
Dew Point: -2°   Wind: 13mph
Humidity: 67%   Direction: 280°W
Pressure: 29.75"   Gusts: NA
Location:  41.46°N, 70.61°W
Report Text: KMVY 180853Z AUTO 28011KT 10SM OVC055 04/M02 A2975 RMK AO2 SLP072 T00391017 58000
Loading
Personal Weather Stations






























Interactive Weather Map New forecast layout! Learn more

10-Day Weather Forecast

Advertisements
Track Severe Weather on mobile